sensor_id;sensor_type;location;lat;lon;timestamp;P1;durP1;ratioP1;P2;durP2;ratioP2
23812;SDS011;12087;45.190;5.688;2022-08-19T00:01:23;6.60;;;4.40;;
23812;SDS011;12087;45.190;5.688;2022-08-19T00:06:47;4.75;;;4.35;;
23812;SDS011;12087;45.190;5.688;2022-08-19T00:12:09;4.75;;;4.25;;
23812;SDS011;12087;45.190;5.688;2022-08-19T00:17:33;4.68;;;4.25;;
23812;SDS011;12087;45.190;5.688;2022-08-19T00:22:56;5.40;;;4.72;;
23812;SDS011;12087;45.190;5.688;2022-08-19T00:28:19;5.30;;;4.03;;
23812;SDS011;12087;45.190;5.688;2022-08-19T00:33:43;4.70;;;4.30;;
23812;SDS011;12087;45.190;5.688;2022-08-19T00:39:05;6.70;;;4.13;;
23812;SDS011;12087;45.190;5.688;2022-08-19T00:44:28;6.30;;;4.35;;
23812;SDS011;12087;45.190;5.688;2022-08-19T00:49:53;5.53;;;4.60;;
23812;SDS011;12087;45.190;5.688;2022-08-19T00:55:18;5.18;;;4.60;;
23812;SDS011;12087;45.190;5.688;2022-08-19T01:00:43;5.00;;;4.35;;
23812;SDS011;12087;45.190;5.688;2022-08-19T01:06:07;6.53;;;4.22;;
23812;SDS011;12087;45.190;5.688;2022-08-19T01:11:30;4.80;;;4.40;;
23812;SDS011;12087;45.190;5.688;2022-08-19T01:16:55;5.80;;;5.00;;
23812;SDS011;12087;45.190;5.688;2022-08-19T01:22:26;5.30;;;4.22;;
23812;SDS011;12087;45.190;5.688;2022-08-19T01:27:52;7.85;;;5.22;;
23812;SDS011;12087;45.190;5.688;2022-08-19T01:33:14;6.00;;;4.85;;
23812;SDS011;12087;45.190;5.688;2022-08-19T01:38:40;4.95;;;4.45;;
23812;SDS011;12087;45.190;5.688;2022-08-19T01:44:04;6.88;;;4.88;;
23812;SDS011;12087;45.190;5.688;2022-08-19T01:49:27;5.53;;;4.95;;
23812;SDS011;12087;45.190;5.688;2022-08-19T01:54:51;5.35;;;4.85;;
23812;SDS011;12087;45.190;5.688;2022-08-19T02:00:14;4.65;;;4.25;;
23812;SDS011;12087;45.190;5.688;2022-08-19T02:05:38;8.27;;;4.93;;
23812;SDS011;12087;45.190;5.688;2022-08-19T02:11:03;6.30;;;4.47;;
23812;SDS011;12087;45.190;5.688;2022-08-19T02:16:26;4.60;;;4.20;;
23812;SDS011;12087;45.190;5.688;2022-08-19T02:21:51;5.93;;;4.28;;
23812;SDS011;12087;45.190;5.688;2022-08-19T02:27:15;4.70;;;4.30;;
23812;SDS011;12087;45.190;5.688;2022-08-19T02:32:37;4.65;;;4.25;;
23812;SDS011;12087;45.190;5.688;2022-08-19T02:38:00;3.70;;;3.40;;
23812;SDS011;12087;45.190;5.688;2022-08-19T02:43:41;5.37;;;3.40;;
23812;SDS011;12087;45.190;5.688;2022-08-19T02:49:04;3.20;;;3.00;;
23812;SDS011;12087;45.190;5.688;2022-08-19T02:54:27;2.80;;;2.60;;
23812;SDS011;12087;45.190;5.688;2022-08-19T02:59:51;4.18;;;3.78;;
23812;SDS011;12087;45.190;5.688;2022-08-19T03:05:14;6.05;;;3.60;;
23812;SDS011;12087;45.190;5.688;2022-08-19T03:10:39;8.75;;;4.28;;
23812;SDS011;12087;45.190;5.688;2022-08-19T03:16:05;3.97;;;3.50;;
23812;SDS011;12087;45.190;5.688;2022-08-19T03:21:28;10.10;;;4.72;;
23812;SDS011;12087;45.190;5.688;2022-08-19T03:26:52;7.03;;;4.00;;
23812;SDS011;12087;45.190;5.688;2022-08-19T03:32:18;4.50;;;3.97;;
23812;SDS011;12087;45.190;5.688;2022-08-19T03:37:42;3.70;;;3.13;;
23812;SDS011;12087;45.190;5.688;2022-08-19T03:43:04;3.92;;;3.58;;
23812;SDS011;12087;45.190;5.688;2022-08-19T03:48:28;3.97;;;3.08;;
23812;SDS011;12087;45.190;5.688;2022-08-19T03:53:51;3.53;;;3.22;;
23812;SDS011;12087;45.190;5.688;2022-08-19T03:59:14;3.88;;;3.47;;
23812;SDS011;12087;45.190;5.688;2022-08-19T04:04:40;3.83;;;3.42;;
23812;SDS011;12087;45.190;5.688;2022-08-19T04:10:04;4.32;;;3.53;;
23812;SDS011;12087;45.190;5.688;2022-08-19T04:15:27;4.30;;;2.95;;
23812;SDS011;12087;45.190;5.688;2022-08-19T04:20:55;7.93;;;3.50;;
23812;SDS011;12087;45.190;5.688;2022-08-19T04:26:19;3.80;;;3.40;;
23812;SDS011;12087;45.190;5.688;2022-08-19T04:31:43;3.75;;;2.80;;
23812;SDS011;12087;45.190;5.688;2022-08-19T04:37:08;3.65;;;2.95;;
23812;SDS011;12087;45.190;5.688;2022-08-19T04:42:31;3.10;;;2.90;;
23812;SDS011;12087;45.190;5.688;2022-08-19T04:47:59;3.40;;;3.10;;
23812;SDS011;12087;45.190;5.688;2022-08-19T04:53:23;4.13;;;3.08;;
23812;SDS011;12087;45.190;5.688;2022-08-19T04:58:49;4.35;;;3.60;;
23812;SDS011;12087;45.190;5.688;2022-08-19T05:04:12;4.18;;;3.78;;
23812;SDS011;12087;45.190;5.688;2022-08-19T05:09:35;4.50;;;4.07;;
23812;SDS011;12087;45.190;5.688;2022-08-19T05:14:58;4.93;;;4.30;;
23812;SDS011;12087;45.190;5.688;2022-08-19T05:20:21;4.68;;;4.28;;
23812;SDS011;12087;45.190;5.688;2022-08-19T05:26:02;5.17;;;4.67;;
23812;SDS011;12087;45.190;5.688;2022-08-19T05:31:24;10.25;;;5.07;;
23812;SDS011;12087;45.190;5.688;2022-08-19T05:36:47;5.43;;;4.93;;
23812;SDS011;12087;45.190;5.688;2022-08-19T05:42:12;7.28;;;4.15;;
23812;SDS011;12087;45.190;5.688;2022-08-19T05:47:34;6.18;;;4.75;;
23812;SDS011;12087;45.190;5.688;2022-08-19T05:52:57;5.60;;;5.05;;
23812;SDS011;12087;45.190;5.688;2022-08-19T05:58:20;7.07;;;4.97;;
23812;SDS011;12087;45.190;5.688;2022-08-19T06:03:44;6.45;;;5.20;;
23812;SDS011;12087;45.190;5.688;2022-08-19T06:09:07;5.60;;;5.10;;
23812;SDS011;12087;45.190;5.688;2022-08-19T06:14:33;7.47;;;4.97;;
23812;SDS011;12087;45.190;5.688;2022-08-19T06:19:58;5.90;;;4.68;;
23812;SDS011;12087;45.190;5.688;2022-08-19T06:25:20;7.28;;;4.25;;
23812;SDS011;12087;45.190;5.688;2022-08-19T06:30:43;5.40;;;4.53;;
23812;SDS011;12087;45.190;5.688;2022-08-19T06:36:06;7.22;;;4.68;;
23812;SDS011;12087;45.190;5.688;2022-08-19T06:41:29;5.45;;;4.82;;
23812;SDS011;12087;45.190;5.688;2022-08-19T06:46:53;4.93;;;4.20;;
23812;SDS011;12087;45.190;5.688;2022-08-19T06:52:16;6.85;;;4.80;;
23812;SDS011;12087;45.190;5.688;2022-08-19T06:57:39;10.15;;;4.85;;
23812;SDS011;12087;45.190;5.688;2022-08-19T07:03:03;5.82;;;4.18;;
23812;SDS011;12087;45.190;5.688;2022-08-19T07:08:25;4.35;;;3.85;;
23812;SDS011;12087;45.190;5.688;2022-08-19T07:13:48;4.50;;;3.38;;
23812;SDS011;12087;45.190;5.688;2022-08-19T07:19:12;3.92;;;3.63;;
23812;SDS011;12087;45.190;5.688;2022-08-19T07:24:36;5.57;;;3.72;;
23812;SDS011;12087;45.190;5.688;2022-08-19T07:29:59;6.75;;;3.75;;
23812;SDS011;12087;45.190;5.688;2022-08-19T07:35:23;8.32;;;4.22;;
23812;SDS011;12087;45.190;5.688;2022-08-19T07:40:45;4.68;;;4.03;;
23812;SDS011;12087;45.190;5.688;2022-08-19T07:46:07;4.75;;;4.35;;
23812;SDS011;12087;45.190;5.688;2022-08-19T07:51:32;4.45;;;4.00;;
23812;SDS011;12087;45.190;5.688;2022-08-19T07:56:55;3.95;;;3.53;;
23812;SDS011;12087;45.190;5.688;2022-08-19T08:02:18;4.10;;;3.80;;
23812;SDS011;12087;45.190;5.688;2022-08-19T08:07:42;5.32;;;4.82;;
23812;SDS011;12087;45.190;5.688;2022-08-19T08:13:21;6.57;;;4.35;;
23812;SDS011;12087;45.190;5.688;2022-08-19T08:18:44;5.10;;;4.60;;
23812;SDS011;12087;45.190;5.688;2022-08-19T08:24:08;4.70;;;4.30;;
23812;SDS011;12087;45.190;5.688;2022-08-19T08:29:31;3.92;;;3.55;;
23812;SDS011;12087;45.190;5.688;2022-08-19T08:34:53;4.60;;;3.92;;
23812;SDS011;12087;45.190;5.688;2022-08-19T08:40:18;7.25;;;4.18;;
23812;SDS011;12087;45.190;5.688;2022-08-19T08:45:45;5.68;;;3.63;;
23812;SDS011;12087;45.190;5.688;2022-08-19T08:51:14;3.83;;;3.47;;
23812;SDS011;12087;45.190;5.688;2022-08-19T08:56:41;4.63;;;3.88;;
23812;SDS011;12087;45.190;5.688;2022-08-19T09:02:05;5.53;;;3.75;;
23812;SDS011;12087;45.190;5.688;2022-08-19T09:07:32;4.65;;;3.90;;
23812;SDS011;12087;45.190;5.688;2022-08-19T09:13:05;4.88;;;4.22;;
23812;SDS011;12087;45.190;5.688;2022-08-19T09:18:38;6.00;;;3.60;;
23812;SDS011;12087;45.190;5.688;2022-08-19T09:24:02;8.63;;;3.40;;
23812;SDS011;12087;45.190;5.688;2022-08-19T09:29:27;3.10;;;2.90;;
23812;SDS011;12087;45.190;5.688;2022-08-19T09:40:44;3.47;;;3.17;;
23812;SDS011;12087;45.190;5.688;2022-08-19T09:46:08;3.85;;;3.00;;
23812;SDS011;12087;45.190;5.688;2022-08-19T09:51:30;3.88;;;3.30;;
23812;SDS011;12087;45.190;5.688;2022-08-19T09:56:53;3.50;;;3.20;;
23812;SDS011;12087;45.190;5.688;2022-08-19T10:02:21;4.78;;;4.28;;
23812;SDS011;12087;45.190;5.688;2022-08-19T10:07:46;5.07;;;4.55;;
23812;SDS011;12087;45.190;5.688;2022-08-19T10:13:09;7.03;;;5.28;;
23812;SDS011;12087;45.190;5.688;2022-08-19T10:18:33;9.38;;;5.38;;
23812;SDS011;12087;45.190;5.688;2022-08-19T10:23:57;5.07;;;4.28;;
23812;SDS011;12087;45.190;5.688;2022-08-19T10:29:21;4.10;;;3.72;;
23812;SDS011;12087;45.190;5.688;2022-08-19T10:34:45;11.07;;;3.67;;
23812;SDS011;12087;45.190;5.688;2022-08-19T10:40:09;3.75;;;3.40;;
23812;SDS011;12087;45.190;5.688;2022-08-19T10:45:32;5.43;;;4.70;;
23812;SDS011;12087;45.190;5.688;2022-08-19T10:50:55;4.90;;;4.00;;
23812;SDS011;12087;45.190;5.688;2022-08-19T10:56:36;6.25;;;4.97;;
23812;SDS011;12087;45.190;5.688;2022-08-19T11:02:15;6.03;;;5.43;;
23812;SDS011;12087;45.190;5.688;2022-08-19T11:07:39;8.50;;;5.93;;
23812;SDS011;12087;45.190;5.688;2022-08-19T11:13:01;13.63;;;7.05;;
23812;SDS011;12087;45.190;5.688;2022-08-19T11:18:23;9.00;;;6.60;;
23812;SDS011;12087;45.190;5.688;2022-08-19T11:23:47;6.20;;;5.60;;
23812;SDS011;12087;45.190;5.688;2022-08-19T11:29:12;7.20;;;6.50;;
23812;SDS011;12087;45.190;5.688;2022-08-19T11:34:35;11.27;;;6.80;;
23812;SDS011;12087;45.190;5.688;2022-08-19T11:39:59;7.35;;;6.60;;
23812;SDS011;12087;45.190;5.688;2022-08-19T11:45:21;8.05;;;6.93;;
23812;SDS011;12087;45.190;5.688;2022-08-19T11:50:44;8.95;;;6.30;;
23812;SDS011;12087;45.190;5.688;2022-08-19T11:56:08;6.50;;;5.90;;
23812;SDS011;12087;45.190;5.688;2022-08-19T12:01:31;5.97;;;5.38;;
23812;SDS011;12087;45.190;5.688;2022-08-19T12:06:53;5.72;;;5.15;;
23812;SDS011;12087;45.190;5.688;2022-08-19T12:12:17;6.25;;;5.55;;
23812;SDS011;12087;45.190;5.688;2022-08-19T12:17:39;6.05;;;5.45;;
23812;SDS011;12087;45.190;5.688;2022-08-19T12:23:03;7.93;;;5.82;;
23812;SDS011;12087;45.190;5.688;2022-08-19T12:28:26;6.32;;;5.72;;
23812;SDS011;12087;45.190;5.688;2022-08-19T12:33:49;6.88;;;5.82;;
23812;SDS011;12087;45.190;5.688;2022-08-19T12:39:12;8.85;;;6.70;;
23812;SDS011;12087;45.190;5.688;2022-08-19T12:44:36;7.43;;;6.10;;
23812;SDS011;12087;45.190;5.688;2022-08-19T12:49:59;8.80;;;6.00;;
23812;SDS011;12087;45.190;5.688;2022-08-19T12:55:28;9.45;;;5.97;;
23812;SDS011;12087;45.190;5.688;2022-08-19T13:00:52;8.77;;;6.20;;
23812;SDS011;12087;45.190;5.688;2022-08-19T13:06:15;10.52;;;8.95;;
23812;SDS011;12087;45.190;5.688;2022-08-19T13:11:38;13.48;;;9.45;;
23812;SDS011;12087;45.190;5.688;2022-08-19T13:17:01;17.00;;;13.45;;
23812;SDS011;12087;45.190;5.688;2022-08-19T13:22:24;14.13;;;12.70;;
23812;SDS011;12087;45.190;5.688;2022-08-19T13:27:47;17.13;;;13.65;;
23812;SDS011;12087;45.190;5.688;2022-08-19T13:33:12;17.70;;;14.07;;
23812;SDS011;12087;45.190;5.688;2022-08-19T13:38:37;16.15;;;14.00;;
23812;SDS011;12087;45.190;5.688;2022-08-19T13:44:00;22.45;;;14.65;;
23812;SDS011;12087;45.190;5.688;2022-08-19T13:49:24;16.45;;;14.70;;
23812;SDS011;12087;45.190;5.688;2022-08-19T13:54:46;18.73;;;14.80;;
23812;SDS011;12087;45.190;5.688;2022-08-19T14:00:09;16.58;;;14.40;;
23812;SDS011;12087;45.190;5.688;2022-08-19T14:05:35;18.58;;;14.10;;
23812;SDS011;12087;45.190;5.688;2022-08-19T14:10:58;15.15;;;13.55;;
23812;SDS011;12087;45.190;5.688;2022-08-19T14:16:20;15.90;;;14.30;;
23812;SDS011;12087;45.190;5.688;2022-08-19T14:21:44;15.68;;;14.07;;
23812;SDS011;12087;45.190;5.688;2022-08-19T14:27:06;17.42;;;13.68;;
23812;SDS011;12087;45.190;5.688;2022-08-19T14:32:28;16.00;;;14.40;;
23812;SDS011;12087;45.190;5.688;2022-08-19T14:37:52;13.68;;;12.23;;
23812;SDS011;12087;45.190;5.688;2022-08-19T14:43:15;15.80;;;14.10;;
23812;SDS011;12087;45.190;5.688;2022-08-19T14:48:37;13.68;;;12.32;;
23812;SDS011;12087;45.190;5.688;2022-08-19T14:54:01;14.35;;;12.63;;
23812;SDS011;12087;45.190;5.688;2022-08-19T14:59:23;13.93;;;12.50;;
23812;SDS011;12087;45.190;5.688;2022-08-19T15:04:46;14.10;;;12.77;;
23812;SDS011;12087;45.190;5.688;2022-08-19T15:10:10;13.40;;;12.02;;
23812;SDS011;12087;45.190;5.688;2022-08-19T15:15:34;15.27;;;13.73;;
23812;SDS011;12087;45.190;5.688;2022-08-19T15:20:58;16.30;;;11.98;;
23812;SDS011;12087;45.190;5.688;2022-08-19T15:26:22;17.40;;;13.70;;
23812;SDS011;12087;45.190;5.688;2022-08-19T15:31:46;14.52;;;12.43;;
23812;SDS011;12087;45.190;5.688;2022-08-19T15:37:09;14.50;;;12.07;;
23812;SDS011;12087;45.190;5.688;2022-08-19T15:42:32;12.25;;;10.98;;
23812;SDS011;12087;45.190;5.688;2022-08-19T15:47:56;14.50;;;11.85;;
23812;SDS011;12087;45.190;5.688;2022-08-19T15:53:19;12.27;;;11.05;;
23812;SDS011;12087;45.190;5.688;2022-08-19T15:58:43;13.07;;;11.73;;
23812;SDS011;12087;45.190;5.688;2022-08-19T16:04:22;11.68;;;10.13;;
23812;SDS011;12087;45.190;5.688;2022-08-19T16:10:02;11.13;;;10.03;;
23812;SDS011;12087;45.190;5.688;2022-08-19T16:15:26;10.90;;;9.85;;
23812;SDS011;12087;45.190;5.688;2022-08-19T16:20:50;12.25;;;10.85;;
23812;SDS011;12087;45.190;5.688;2022-08-19T16:26:12;16.13;;;10.65;;
23812;SDS011;12087;45.190;5.688;2022-08-19T16:31:38;12.40;;;10.38;;
23812;SDS011;12087;45.190;5.688;2022-08-19T16:37:00;14.40;;;11.15;;
23812;SDS011;12087;45.190;5.688;2022-08-19T16:42:23;14.65;;;9.98;;
23812;SDS011;12087;45.190;5.688;2022-08-19T16:47:46;16.98;;;9.50;;
23812;SDS011;12087;45.190;5.688;2022-08-19T16:53:09;15.00;;;9.85;;
23812;SDS011;12087;45.190;5.688;2022-08-19T16:58:32;12.73;;;9.27;;
23812;SDS011;12087;45.190;5.688;2022-08-19T17:03:56;9.95;;;8.45;;
23812;SDS011;12087;45.190;5.688;2022-08-19T17:09:18;11.82;;;9.50;;
23812;SDS011;12087;45.190;5.688;2022-08-19T17:14:40;11.02;;;9.80;;
23812;SDS011;12087;45.190;5.688;2022-08-19T17:20:07;10.55;;;9.25;;
23812;SDS011;12087;45.190;5.688;2022-08-19T17:25:30;10.52;;;9.35;;
23812;SDS011;12087;45.190;5.688;2022-08-19T17:30:52;18.67;;;16.38;;
23812;SDS011;12087;45.190;5.688;2022-08-19T17:36:16;14.23;;;12.57;;
23812;SDS011;12087;45.190;5.688;2022-08-19T17:41:42;38.33;;;30.23;;
23812;SDS011;12087;45.190;5.688;2022-08-19T17:47:04;17.45;;;15.07;;
23812;SDS011;12087;45.190;5.688;2022-08-19T17:52:28;13.32;;;9.57;;
23812;SDS011;12087;45.190;5.688;2022-08-19T17:57:50;11.13;;;9.93;;
23812;SDS011;12087;45.190;5.688;2022-08-19T18:03:12;11.98;;;10.35;;
23812;SDS011;12087;45.190;5.688;2022-08-19T18:08:36;10.70;;;9.60;;
23812;SDS011;12087;45.190;5.688;2022-08-19T18:13:59;13.35;;;10.05;;
23812;SDS011;12087;45.190;5.688;2022-08-19T18:19:23;13.05;;;9.82;;
23812;SDS011;12087;45.190;5.688;2022-08-19T18:24:47;11.15;;;8.98;;
23812;SDS011;12087;45.190;5.688;2022-08-19T18:30:10;13.05;;;8.80;;
23812;SDS011;12087;45.190;5.688;2022-08-19T18:35:32;12.10;;;10.27;;
23812;SDS011;12087;45.190;5.688;2022-08-19T18:40:59;9.93;;;8.90;;
23812;SDS011;12087;45.190;5.688;2022-08-19T18:46:39;12.10;;;9.68;;
23812;SDS011;12087;45.190;5.688;2022-08-19T18:52:19;10.57;;;9.50;;
23812;SDS011;12087;45.190;5.688;2022-08-19T18:57:45;11.30;;;9.38;;
23812;SDS011;12087;45.190;5.688;2022-08-19T19:03:09;10.15;;;9.02;;
23812;SDS011;12087;45.190;5.688;2022-08-19T19:08:31;11.60;;;9.65;;
23812;SDS011;12087;45.190;5.688;2022-08-19T19:13:55;12.50;;;9.93;;
23812;SDS011;12087;45.190;5.688;2022-08-19T19:19:21;11.65;;;9.07;;
23812;SDS011;12087;45.190;5.688;2022-08-19T19:24:43;12.60;;;11.30;;
23812;SDS011;12087;45.190;5.688;2022-08-19T19:30:07;23.45;;;15.50;;
23812;SDS011;12087;45.190;5.688;2022-08-19T19:35:30;14.88;;;9.63;;
23812;SDS011;12087;45.190;5.688;2022-08-19T19:40:52;8.88;;;7.97;;
23812;SDS011;12087;45.190;5.688;2022-08-19T19:46:16;9.60;;;8.65;;
23812;SDS011;12087;45.190;5.688;2022-08-19T19:51:38;9.63;;;8.70;;
23812;SDS011;12087;45.190;5.688;2022-08-19T19:57:01;9.43;;;8.43;;
23812;SDS011;12087;45.190;5.688;2022-08-19T20:02:25;10.00;;;8.65;;
23812;SDS011;12087;45.190;5.688;2022-08-19T20:07:55;11.63;;;9.80;;
23812;SDS011;12087;45.190;5.688;2022-08-19T20:13:35;13.10;;;10.33;;
23812;SDS011;12087;45.190;5.688;2022-08-19T20:19:01;11.70;;;8.80;;
23812;SDS011;12087;45.190;5.688;2022-08-19T20:24:24;10.20;;;9.18;;
23812;SDS011;12087;45.190;5.688;2022-08-19T20:29:51;9.10;;;8.18;;
23812;SDS011;12087;45.190;5.688;2022-08-19T20:35:16;12.52;;;8.65;;
23812;SDS011;12087;45.190;5.688;2022-08-19T20:40:40;11.25;;;9.23;;
23812;SDS011;12087;45.190;5.688;2022-08-19T20:46:03;11.40;;;9.27;;
23812;SDS011;12087;45.190;5.688;2022-08-19T20:51:28;12.48;;;9.65;;
23812;SDS011;12087;45.190;5.688;2022-08-19T20:56:50;11.20;;;10.02;;
23812;SDS011;12087;45.190;5.688;2022-08-19T21:02:13;11.57;;;10.32;;
23812;SDS011;12087;45.190;5.688;2022-08-19T21:07:36;10.55;;;9.52;;
23812;SDS011;12087;45.190;5.688;2022-08-19T21:12:59;15.13;;;11.00;;
23812;SDS011;12087;45.190;5.688;2022-08-19T21:18:21;11.48;;;9.88;;
23812;SDS011;12087;45.190;5.688;2022-08-19T21:23:47;12.20;;;10.07;;
23812;SDS011;12087;45.190;5.688;2022-08-19T21:29:10;11.45;;;8.80;;
23812;SDS011;12087;45.190;5.688;2022-08-19T21:34:39;10.60;;;9.52;;
23812;SDS011;12087;45.190;5.688;2022-08-19T21:46:24;12.27;;;9.05;;
23812;SDS011;12087;45.190;5.688;2022-08-19T21:52:06;11.27;;;8.32;;
23812;SDS011;12087;45.190;5.688;2022-08-19T21:57:36;10.23;;;8.00;;
23812;SDS011;12087;45.190;5.688;2022-08-19T22:02:59;10.20;;;9.15;;
23812;SDS011;12087;45.190;5.688;2022-08-19T22:08:21;9.48;;;7.90;;
23812;SDS011;12087;45.190;5.688;2022-08-19T22:13:45;9.85;;;8.68;;
23812;SDS011;12087;45.190;5.688;2022-08-19T22:19:07;11.32;;;8.90;;
23812;SDS011;12087;45.190;5.688;2022-08-19T22:24:31;14.05;;;10.77;;
23812;SDS011;12087;45.190;5.688;2022-08-19T22:29:55;11.35;;;9.15;;
23812;SDS011;12087;45.190;5.688;2022-08-19T22:35:18;10.00;;;9.00;;
23812;SDS011;12087;45.190;5.688;2022-08-19T22:40:42;14.50;;;10.57;;
23812;SDS011;12087;45.190;5.688;2022-08-19T22:46:07;11.68;;;9.88;;
23812;SDS011;12087;45.190;5.688;2022-08-19T22:51:30;11.07;;;9.68;;
23812;SDS011;12087;45.190;5.688;2022-08-19T22:57:09;11.50;;;10.40;;
23812;SDS011;12087;45.190;5.688;2022-08-19T23:02:33;12.20;;;9.93;;
23812;SDS011;12087;45.190;5.688;2022-08-19T23:07:57;12.27;;;9.82;;
23812;SDS011;12087;45.190;5.688;2022-08-19T23:13:19;10.27;;;9.13;;
23812;SDS011;12087;45.190;5.688;2022-08-19T23:18:43;12.95;;;9.60;;
23812;SDS011;12087;45.190;5.688;2022-08-19T23:24:05;12.48;;;9.20;;
23812;SDS011;12087;45.190;5.688;2022-08-19T23:29:28;11.20;;;9.98;;
23812;SDS011;12087;45.190;5.688;2022-08-19T23:35:09;9.77;;;8.80;;
23812;SDS011;12087;45.190;5.688;2022-08-19T23:40:32;9.40;;;8.40;;
23812;SDS011;12087;45.190;5.688;2022-08-19T23:45:55;11.95;;;9.43;;
23812;SDS011;12087;45.190;5.688;2022-08-19T23:51:19;10.68;;;9.02;;
23812;SDS011;12087;45.190;5.688;2022-08-19T23:56:41;10.27;;;9.18;;
